Terminal Aerodrome Forecast
Issued by NWS Northern Indiana

Home | Current Version | Previous Version | Graphics & Text | Print | Product List | Glossary On
Versions: 1 2 3 4 5 6 7 8 9 10 11 12 13 14
154
FTUS43 KIWX 241439 AAA
TAFFWA
TAF AMD
KFWA 241439Z 2415/2512 31006KT P6SM BKN025
     FM241600 35009KT P6SM BKN035
     FM250000 01005KT P6SM SKC=

USA.gov is the U.S. government's official web portal to all federal, state and local government web resources and services.